Time;durP1;ratioP1;P1;durP2;ratioP2;P2;SDS_P1;SDS_P2;PMS_P1;PMS_P2;Temp;Humidity;BMP_temperature;BMP_pressure;BME280_temperature;BME280_humidity;BME280_pressure;Samples;Min_cycle;Max_cycle;Signal;HPM_P1;HPM_P2
2022/06/19 00:02:15;;;;;;;3.72;1.52;;;;;;;;;;5045000;28;20168;-74
2022/06/19 00:04:41;;;;;;;3.80;1.13;;;;;;;;;;5052607;28;20185;-74
2022/06/19 00:07:06;;;;;;;5.75;1.40;;;;;;;;;;5053676;28;20200;-74
2022/06/19 00:09:31;;;;;;;8.43;2.30;;;;;;;;;;5050291;28;20235;-74
2022/06/19 00:11:56;;;;;;;9.65;2.33;;;;;;;;;;5034669;28;20651;-75
2022/06/19 00:14:23;;;;;;;6.78;1.60;;;;;;;;;;5054070;28;20228;-75
2022/06/19 00:16:48;;;;;;;6.18;1.52;;;;;;;;;;5050549;28;20292;-74
2022/06/19 00:19:13;;;;;;;8.00;1.80;;;;;;;;;;5044477;28;20283;-74
2022/06/19 00:21:38;;;;;;;3.97;1.50;;;;;;;;;;5049948;28;20847;-74
2022/06/19 00:24:04;;;;;;;7.28;1.77;;;;;;;;;;5052913;28;20631;-74
2022/06/19 00:26:29;;;;;;;5.68;1.73;;;;;;;;;;5049680;28;20724;-74
2022/06/19 00:28:54;;;;;;;9.25;1.73;;;;;;;;;;5052700;28;20197;-74
2022/06/19 00:31:20;;;;;;;7.18;1.73;;;;;;;;;;5056460;28;20538;-74
2022/06/19 00:33:45;;;;;;;6.35;1.90;;;;;;;;;;5047928;28;20191;-74
2022/06/19 00:36:10;;;;;;;18.85;3.38;;;;;;;;;;5042394;28;20307;-74
2022/06/19 00:38:35;;;;;;;8.30;1.33;;;;;;;;;;5026864;28;20252;-74
2022/06/19 00:41:01;;;;;;;9.15;1.90;;;;;;;;;;5051232;28;20272;-74
2022/06/19 00:43:26;;;;;;;8.68;1.98;;;;;;;;;;5048802;28;20209;-75
2022/06/19 00:45:52;;;;;;;6.60;1.92;;;;;;;;;;5029749;28;20169;-74
2022/06/19 00:48:30;;;;;;;7.25;1.75;;;;;;;;;;5047780;28;20194;-73
2022/06/19 00:50:59;;;;;;;10.82;2.10;;;;;;;;;;5048489;28;20185;-74
2022/06/19 00:53:28;;;;;;;6.78;1.60;;;;;;;;;;5047637;28;20170;-74
2022/06/19 00:55:53;;;;;;;8.35;1.50;;;;;;;;;;5048232;28;20174;-74
2022/06/19 00:58:25;;;;;;;5.50;1.55;;;;;;;;;;5042204;28;20208;-73
2022/06/19 01:00:53;;;;;;;4.88;1.30;;;;;;;;;;5047050;28;20635;-73
2022/06/19 01:03:20;;;;;;;6.53;1.15;;;;;;;;;;5044125;28;20211;-73
2022/06/19 01:05:46;;;;;;;4.25;1.17;;;;;;;;;;5048364;28;20659;-74
2022/06/19 01:08:11;;;;;;;5.45;1.30;;;;;;;;;;5047203;28;20340;-74
2022/06/19 01:10:38;;;;;;;2.90;0.80;;;;;;;;;;5050216;28;20609;-74
2022/06/19 01:13:03;;;;;;;5.50;1.10;;;;;;;;;;5050933;28;20256;-73
2022/06/19 01:15:29;;;;;;;6.25;1.38;;;;;;;;;;5048640;28;20277;-74
2022/06/19 01:17:57;;;;;;;2.17;1.00;;;;;;;;;;5053107;28;20275;-74
2022/06/19 01:20:23;;;;;;;5.32;1.50;;;;;;;;;;5046465;28;20178;-73
2022/06/19 01:22:51;;;;;;;6.05;1.05;;;;;;;;;;5054972;28;20174;-74
2022/06/19 01:25:17;;;;;;;5.38;1.15;;;;;;;;;;5054065;28;20170;-74
2022/06/19 01:30:32;;;;;;;5.75;0.90;;;;;;;;;;5056170;28;20223;-74
2022/06/19 01:32:58;;;;;;;4.65;1.00;;;;;;;;;;5052321;28;20673;-74
2022/06/19 01:35:25;;;;;;;1.83;0.75;;;;;;;;;;5050361;28;20574;-74
2022/06/19 01:37:51;;;;;;;6.88;1.05;;;;;;;;;;5045696;28;20243;-74
2022/06/19 01:40:18;;;;;;;6.00;1.88;;;;;;;;;;5054246;28;20206;-74
2022/06/19 01:42:44;;;;;;;4.20;1.02;;;;;;;;;;5040563;28;20193;-74
2022/06/19 01:45:09;;;;;;;5.28;1.08;;;;;;;;;;5054303;28;20243;-74
2022/06/19 01:47:35;;;;;;;3.75;1.13;;;;;;;;;;5052901;28;20201;-75
2022/06/19 01:50:00;;;;;;;4.63;0.90;;;;;;;;;;5052827;28;20180;-74
2022/06/19 01:52:28;;;;;;;4.32;1.08;;;;;;;;;;5028938;28;20189;-75
2022/06/19 01:54:55;;;;;;;6.32;1.35;;;;;;;;;;5036010;28;20173;-75
2022/06/19 01:57:21;;;;;;;6.35;1.08;;;;;;;;;;5037099;28;20597;-75
2022/06/19 01:59:47;;;;;;;3.03;1.08;;;;;;;;;;5035730;28;20227;-74
2022/06/19 02:02:13;;;;;;;7.13;2.50;;;;;;;;;;5035872;28;22165;-75
2022/06/19 02:04:39;;;;;;;4.00;0.90;;;;;;;;;;5035660;28;20669;-75
2022/06/19 02:07:06;;;;;;;5.25;1.30;;;;;;;;;;5036549;28;20188;-75
2022/06/19 02:09:33;;;;;;;5.03;0.80;;;;;;;;;;5034166;28;20220;-75
2022/06/19 02:11:58;;;;;;;4.75;0.90;;;;;;;;;;5036517;28;20185;-75
2022/06/19 02:14:23;;;;;;;5.00;1.00;;;;;;;;;;5039259;28;20620;-75
2022/06/19 02:16:49;;;;;;;5.28;0.82;;;;;;;;;;5039943;28;20904;-73
2022/06/19 02:19:15;;;;;;;4.15;0.82;;;;;;;;;;5020176;28;20781;-76
2022/06/19 02:21:43;;;;;;;1.77;0.73;;;;;;;;;;5037497;28;20177;-73
2022/06/19 02:24:14;;;;;;;2.35;0.90;;;;;;;;;;5035427;28;20305;-75
2022/06/19 02:26:40;;;;;;;5.72;1.67;;;;;;;;;;5035555;28;20181;-74
2022/06/19 02:29:09;;;;;;;6.53;1.00;;;;;;;;;;5035276;28;20825;-74
2022/06/19 02:31:34;;;;;;;6.10;1.20;;;;;;;;;;5033059;28;20181;-75
2022/06/19 02:34:01;;;;;;;4.22;1.35;;;;;;;;;;5037743;28;20193;-75
2022/06/19 02:36:45;;;;;;;3.95;1.13;;;;;;;;;;5019685;28;20219;-75
2022/06/19 02:39:16;;;;;;;7.60;1.83;;;;;;;;;;5023557;28;20215;-75
2022/06/19 02:41:46;;;;;;;5.38;1.52;;;;;;;;;;5035102;28;20193;-73
2022/06/19 02:44:12;;;;;;;4.28;1.00;;;;;;;;;;5033930;28;20259;-75
2022/06/19 02:46:37;;;;;;;5.65;1.65;;;;;;;;;;5049931;28;20272;-74
2022/06/19 02:49:03;;;;;;;6.15;1.55;;;;;;;;;;5051195;28;20236;-75
2022/06/19 02:51:28;;;;;;;5.85;1.70;;;;;;;;;;5052904;28;20173;-74
2022/06/19 02:53:53;;;;;;;7.32;2.05;;;;;;;;;;5051942;28;20174;-74
2022/06/19 02:56:18;;;;;;;5.50;1.52;;;;;;;;;;5051934;28;20762;-72
2022/06/19 02:58:44;;;;;;;5.90;1.40;;;;;;;;;;5050611;28;20193;-72
2022/06/19 03:01:09;;;;;;;10.02;1.70;;;;;;;;;;5047586;28;20189;-74
2022/06/19 03:03:38;;;;;;;8.80;1.88;;;;;;;;;;5055507;28;20723;-73
2022/06/19 03:06:04;;;;;;;10.57;2.20;;;;;;;;;;5048955;28;20178;-73
2022/06/19 03:08:29;;;;;;;9.60;1.92;;;;;;;;;;5051904;28;20198;-74
2022/06/19 03:10:54;;;;;;;5.43;1.48;;;;;;;;;;5051986;28;20184;-73
2022/06/19 03:13:21;;;;;;;10.43;1.92;;;;;;;;;;5051904;28;20400;-76
2022/06/19 03:15:47;;;;;;;10.05;2.50;;;;;;;;;;5039121;28;20615;-75
2022/06/19 03:18:12;;;;;;;13.95;2.97;;;;;;;;;;5036324;28;20247;-76
2022/06/19 03:20:37;;;;;;;9.25;2.53;;;;;;;;;;5016447;28;20185;-75
2022/06/19 03:23:02;;;;;;;10.02;1.90;;;;;;;;;;5036372;28;20205;-73
2022/06/19 03:25:27;;;;;;;9.15;2.00;;;;;;;;;;5033696;28;20215;-75
2022/06/19 03:27:53;;;;;;;6.75;1.65;;;;;;;;;;5034921;28;20850;-75
2022/06/19 03:30:19;;;;;;;11.43;1.88;;;;;;;;;;5032979;28;20661;-75
2022/06/19 03:32:45;;;;;;;6.50;1.60;;;;;;;;;;5017499;28;20234;-73
2022/06/19 03:35:10;;;;;;;12.63;1.90;;;;;;;;;;5035322;28;20193;-73
2022/06/19 03:37:35;;;;;;;7.07;1.42;;;;;;;;;;5033192;28;20222;-73
2022/06/19 03:40:01;;;;;;;10.10;2.08;;;;;;;;;;5017990;28;20272;-73
2022/06/19 03:42:26;;;;;;;9.05;2.78;;;;;;;;;;5036727;28;20190;-75
2022/06/19 03:44:51;;;;;;;7.78;1.70;;;;;;;;;;5034409;28;20189;-74
2022/06/19 03:47:24;;;;;;;8.52;1.70;;;;;;;;;;5033667;28;20253;-75
2022/06/19 03:49:49;;;;;;;8.40;1.85;;;;;;;;;;5013551;28;20174;-75
2022/06/19 03:52:15;;;;;;;10.10;1.40;;;;;;;;;;5035756;28;20254;-75
2022/06/19 03:54:40;;;;;;;6.18;1.50;;;;;;;;;;5035084;28;20250;-74
2022/06/19 03:57:05;;;;;;;6.47;1.33;;;;;;;;;;5035975;28;20227;-75
2022/06/19 03:59:31;;;;;;;5.05;1.20;;;;;;;;;;5037253;28;20243;-75
2022/06/19 04:01:56;;;;;;;5.53;2.03;;;;;;;;;;5033940;28;20643;-75
2022/06/19 04:04:21;;;;;;;7.88;1.58;;;;;;;;;;5033787;28;20177;-75
2022/06/19 04:06:46;;;;;;;5.28;1.45;;;;;;;;;;5033724;28;20184;-74
2022/06/19 04:09:13;;;;;;;11.07;1.20;;;;;;;;;;5034293;28;20233;-76
2022/06/19 04:11:38;;;;;;;10.27;1.40;;;;;;;;;;5037832;28;20668;-74
2022/06/19 04:14:04;;;;;;;8.93;1.58;;;;;;;;;;5031708;28;20574;-74
2022/06/19 04:16:31;;;;;;;9.70;1.70;;;;;;;;;;5033227;28;20198;-74
2022/06/19 04:18:56;;;;;;;9.65;1.75;;;;;;;;;;5031647;28;20206;-74
2022/06/19 04:21:24;;;;;;;7.47;1.40;;;;;;;;;;5033577;28;21008;-73
2022/06/19 04:23:51;;;;;;;8.70;1.92;;;;;;;;;;5031318;28;20267;-74
2022/06/19 04:26:16;;;;;;;5.60;1.45;;;;;;;;;;5034544;28;20199;-74
2022/06/19 04:28:42;;;;;;;4.45;1.10;;;;;;;;;;5033750;28;20197;-74
2022/06/19 04:31:07;;;;;;;5.47;1.38;;;;;;;;;;5015816;28;20178;-74
2022/06/19 04:33:37;;;;;;;10.80;1.63;;;;;;;;;;5031298;28;20181;-74
2022/06/19 04:36:02;;;;;;;8.93;1.38;;;;;;;;;;5032736;28;20689;-74
2022/06/19 04:38:28;;;;;;;7.00;1.50;;;;;;;;;;5029491;28;20208;-74
2022/06/19 04:40:54;;;;;;;6.32;1.58;;;;;;;;;;5037995;28;20186;-73
2022/06/19 04:43:19;;;;;;;5.63;1.30;;;;;;;;;;5016103;28;20242;-73
2022/06/19 04:45:44;;;;;;;9.35;2.25;;;;;;;;;;5041925;28;20617;-73
2022/06/19 04:48:10;;;;;;;9.07;1.63;;;;;;;;;;5048552;28;20204;-73
2022/06/19 04:50:35;;;;;;;6.40;1.52;;;;;;;;;;5051744;28;20597;-72
2022/06/19 04:53:01;;;;;;;7.65;2.22;;;;;;;;;;5049900;28;20678;-73
2022/06/19 04:55:26;;;;;;;6.47;1.42;;;;;;;;;;5054107;28;20180;-73
2022/06/19 04:57:51;;;;;;;8.52;1.75;;;;;;;;;;5030489;28;20722;-73
2022/06/19 05:00:19;;;;;;;4.43;1.77;;;;;;;;;;5046501;28;20213;-73
2022/06/19 05:02:47;;;;;;;10.45;2.25;;;;;;;;;;5050402;28;20181;-73
2022/06/19 05:05:15;;;;;;;6.35;1.73;;;;;;;;;;5050612;28;20181;-73
2022/06/19 05:07:40;;;;;;;4.93;1.63;;;;;;;;;;5047112;28;20209;-73
2022/06/19 05:10:06;;;;;;;8.40;1.63;;;;;;;;;;5048384;28;20558;-73
2022/06/19 05:12:31;;;;;;;8.18;2.20;;;;;;;;;;5052060;28;20189;-73
2022/06/19 05:14:56;;;;;;;7.72;1.70;;;;;;;;;;5041711;28;20251;-73
2022/06/19 05:17:21;;;;;;;6.05;1.80;;;;;;;;;;5032517;28;20205;-73
2022/06/19 05:19:47;;;;;;;9.02;1.88;;;;;;;;;;5032396;28;20173;-73
2022/06/19 05:22:12;;;;;;;6.97;1.90;;;;;;;;;;5031587;28;20208;-74
2022/06/19 05:24:37;;;;;;;6.22;1.45;;;;;;;;;;5032917;28;20275;-74
2022/06/19 05:27:06;;;;;;;7.00;1.65;;;;;;;;;;5029917;28;20260;-74
2022/06/19 05:29:32;;;;;;;6.93;1.67;;;;;;;;;;5032086;28;20202;-73
2022/06/19 05:31:57;;;;;;;13.15;2.85;;;;;;;;;;5032302;28;21105;-75
2022/06/19 05:34:23;;;;;;;3.45;1.15;;;;;;;;;;5031714;28;22480;-72
2022/06/19 05:36:48;;;;;;;11.38;3.30;;;;;;;;;;5032519;28;20233;-75
2022/06/19 05:39:13;;;;;;;10.35;1.52;;;;;;;;;;5047389;28;20209;-73
2022/06/19 05:41:39;;;;;;;9.05;2.10;;;;;;;;;;5051395;28;20184;-73
2022/06/19 05:44:04;;;;;;;7.15;1.92;;;;;;;;;;5050259;28;20182;-72
2022/06/19 05:46:29;;;;;;;11.48;2.22;;;;;;;;;;5034988;28;20239;-72
2022/06/19 05:48:55;;;;;;;9.43;1.80;;;;;;;;;;5030959;28;20685;-73
2022/06/19 05:51:21;;;;;;;8.60;2.30;;;;;;;;;;5030716;28;20177;-71
2022/06/19 05:53:48;;;;;;;6.13;1.77;;;;;;;;;;5032787;28;20184;-73
2022/06/19 05:56:13;;;;;;;9.73;2.42;;;;;;;;;;5035166;28;20184;-72
2022/06/19 05:58:39;;;;;;;7.47;2.35;;;;;;;;;;5032300;28;20190;-71
2022/06/19 06:01:05;;;;;;;6.53;1.92;;;;;;;;;;5035661;28;20174;-71
2022/06/19 06:03:30;;;;;;;6.50;2.00;;;;;;;;;;5035223;28;20378;-70
2022/06/19 06:06:02;;;;;;;4.72;2.10;;;;;;;;;;5034479;28;20190;-70
2022/06/19 06:08:28;;;;;;;8.35;1.90;;;;;;;;;;5036700;28;20300;-70
2022/06/19 06:10:53;;;;;;;7.53;2.45;;;;;;;;;;5039924;28;20189;-72
2022/06/19 06:13:18;;;;;;;8.77;1.70;;;;;;;;;;5038965;28;20213;-72
2022/06/19 06:15:44;;;;;;;7.70;1.83;;;;;;;;;;5037274;28;20264;-73
2022/06/19 06:18:09;;;;;;;6.70;1.73;;;;;;;;;;5036139;28;20780;-71
2022/06/19 06:20:36;;;;;;;7.72;3.42;;;;;;;;;;5035317;28;20200;-72
2022/06/19 06:23:01;;;;;;;10.25;2.05;;;;;;;;;;5035984;28;20183;-69
2022/06/19 06:25:26;;;;;;;4.40;1.58;;;;;;;;;;5035621;28;20185;-70
2022/06/19 06:27:51;;;;;;;8.32;2.63;;;;;;;;;;5034426;28;20294;-73
2022/06/19 06:30:17;;;;;;;8.00;2.35;;;;;;;;;;5035427;28;20251;-73
2022/06/19 06:32:42;;;;;;;6.55;2.10;;;;;;;;;;5033165;28;20177;-71
2022/06/19 06:35:08;;;;;;;6.35;2.40;;;;;;;;;;5036347;28;20775;-70
2022/06/19 06:37:33;;;;;;;10.77;1.90;;;;;;;;;;5020785;28;20210;-70
2022/06/19 06:39:59;;;;;;;6.85;1.65;;;;;;;;;;5026620;28;20665;-73
2022/06/19 06:42:24;;;;;;;9.45;2.00;;;;;;;;;;5035120;28;20177;-72
2022/06/19 06:44:49;;;;;;;5.15;1.90;;;;;;;;;;5042901;28;20658;-71
2022/06/19 06:47:14;;;;;;;9.10;2.13;;;;;;;;;;5051904;28;20227;-71
2022/06/19 06:49:39;;;;;;;6.05;2.28;;;;;;;;;;5051053;28;20190;-72
2022/06/19 06:52:08;;;;;;;9.32;2.40;;;;;;;;;;5051883;28;20652;-71
2022/06/19 06:54:37;;;;;;;6.00;1.83;;;;;;;;;;5050689;28;20189;-72
2022/06/19 06:57:04;;;;;;;9.65;2.75;;;;;;;;;;5052047;28;20193;-71
2022/06/19 06:59:29;;;;;;;7.82;2.15;;;;;;;;;;5032992;28;20255;-71
2022/06/19 07:01:54;;;;;;;7.65;1.92;;;;;;;;;;5048378;28;20170;-71
2022/06/19 07:04:20;;;;;;;13.05;2.88;;;;;;;;;;5051414;28;20198;-72
2022/06/19 07:06:45;;;;;;;7.45;1.98;;;;;;;;;;5051835;28;20261;-71
2022/06/19 07:09:10;;;;;;;10.50;2.78;;;;;;;;;;5050086;28;20659;-72
2022/06/19 07:11:37;;;;;;;8.52;2.78;;;;;;;;;;5049491;28;20174;-72
2022/06/19 07:14:02;;;;;;;7.43;1.98;;;;;;;;;;5047847;28;20186;-72
2022/06/19 07:16:27;;;;;;;11.50;2.45;;;;;;;;;;5046234;28;20185;-71
2022/06/19 07:18:52;;;;;;;10.27;2.08;;;;;;;;;;5049558;28;20198;-73
2022/06/19 07:21:18;;;;;;;11.85;2.10;;;;;;;;;;5052070;28;20166;-72
2022/06/19 07:23:43;;;;;;;10.15;2.55;;;;;;;;;;5051145;28;20207;-74
2022/06/19 07:26:12;;;;;;;8.88;2.40;;;;;;;;;;5051453;28;20585;-73
2022/06/19 07:28:37;;;;;;;7.75;1.90;;;;;;;;;;5046312;28;20710;-73
2022/06/19 07:31:02;;;;;;;8.95;2.33;;;;;;;;;;5033435;28;20178;-72
2022/06/19 07:33:28;;;;;;;9.00;2.13;;;;;;;;;;5050225;28;20186;-72
2022/06/19 07:35:53;;;;;;;8.65;1.70;;;;;;;;;;5050328;28;20199;-74
2022/06/19 07:38:18;;;;;;;9.10;2.40;;;;;;;;;;5049120;28;20266;-71
2022/06/19 07:40:43;;;;;;;6.47;2.28;;;;;;;;;;5051991;28;20177;-71
2022/06/19 07:43:08;;;;;;;11.23;2.88;;;;;;;;;;5049944;28;20201;-71
2022/06/19 07:45:34;;;;;;;7.93;2.78;;;;;;;;;;5040607;28;20181;-74
2022/06/19 07:50:43;;;;;;;7.50;2.00;;;;;;;;;;5040377;28;20243;-71
2022/06/19 07:53:09;;;;;;;7.72;2.00;;;;;;;;;;5039182;28;20195;-72
2022/06/19 07:55:35;;;;;;;8.68;2.53;;;;;;;;;;5024295;28;20188;-73
2022/06/19 07:58:00;;;;;;;13.95;4.03;;;;;;;;;;5041952;28;20510;-73
2022/06/19 08:00:27;;;;;;;11.35;2.22;;;;;;;;;;5042190;28;20267;-73
2022/06/19 08:02:53;;;;;;;8.82;2.00;;;;;;;;;;5039746;28;20181;-73
2022/06/19 08:05:19;;;;;;;6.43;1.95;;;;;;;;;;5042421;28;20660;-73
2022/06/19 08:07:45;;;;;;;13.15;2.35;;;;;;;;;;5038758;28;20201;-73
2022/06/19 08:10:16;;;;;;;5.93;1.88;;;;;;;;;;5051181;28;20178;-73
2022/06/19 08:12:41;;;;;;;7.57;2.28;;;;;;;;;;5056455;28;20188;-73
2022/06/19 08:15:07;;;;;;;9.25;2.35;;;;;;;;;;5047900;28;20439;-71
2022/06/19 08:17:33;;;;;;;7.93;2.03;;;;;;;;;;5034229;28;20223;-73
2022/06/19 08:19:58;;;;;;;8.18;1.92;;;;;;;;;;5051217;28;20187;-73
2022/06/19 08:22:23;;;;;;;6.40;2.28;;;;;;;;;;5056622;28;20176;-74
2022/06/19 08:24:49;;;;;;;7.80;2.75;;;;;;;;;;5016244;28;20234;-72
2022/06/19 08:27:14;;;;;;;9.38;1.70;;;;;;;;;;5035794;28;20178;-72
2022/06/19 08:29:39;;;;;;;8.20;2.00;;;;;;;;;;5035535;28;20596;-73
2022/06/19 08:32:05;;;;;;;16.83;3.55;;;;;;;;;;5033975;28;20201;-73
2022/06/19 08:34:30;;;;;;;7.30;1.90;;;;;;;;;;5036785;28;20178;-73
2022/06/19 08:36:56;;;;;;;7.60;2.13;;;;;;;;;;5035748;28;20206;-74
2022/06/19 08:39:22;;;;;;;5.00;1.67;;;;;;;;;;5034762;28;20944;-74
2022/06/19 08:42:06;;;;;;;7.53;2.30;;;;;;;;;;5036230;28;20185;-73
2022/06/19 08:44:37;;;;;;;8.05;2.30;;;;;;;;;;5037277;28;20177;-73
2022/06/19 08:47:12;;;;;;;6.30;1.77;;;;;;;;;;5033561;28;20186;-73
2022/06/19 08:49:56;;;;;;;6.85;2.47;;;;;;;;;;5049485;28;20235;-71
2022/06/19 08:52:37;;;;;;;7.20;1.80;;;;;;;;;;5051458;28;20450;-71
2022/06/19 08:55:07;;;;;;;6.45;1.80;;;;;;;;;;5047714;28;20192;-72
2022/06/19 08:57:51;;;;;;;5.28;1.40;;;;;;;;;;5049616;28;20214;-71
2022/06/19 09:00:22;;;;;;;7.63;2.53;;;;;;;;;;5048856;28;20259;-71
2022/06/19 09:02:57;;;;;;;7.22;1.60;;;;;;;;;;5044826;28;20178;-71
2022/06/19 09:05:38;;;;;;;6.22;1.83;;;;;;;;;;5049551;28;20187;-71
2022/06/19 09:08:09;;;;;;;5.32;1.92;;;;;;;;;;5044933;28;20216;-72
2022/06/19 09:10:55;;;;;;;5.70;2.83;;;;;;;;;;5049415;28;20228;-71
2022/06/19 09:13:23;;;;;;;7.35;2.10;;;;;;;;;;5042663;28;20181;-71
2022/06/19 09:15:54;;;;;;;7.03;1.80;;;;;;;;;;5047088;28;20184;-74
2022/06/19 09:18:28;;;;;;;6.50;1.50;;;;;;;;;;5041425;28;20297;-71
2022/06/19 09:21:04;;;;;;;8.13;1.90;;;;;;;;;;5029662;28;20264;-73
2022/06/19 09:23:35;;;;;;;6.15;1.48;;;;;;;;;;5013970;28;20182;-71
2022/06/19 09:26:03;;;;;;;7.68;2.15;;;;;;;;;;5033905;28;20189;-69
2022/06/19 09:28:48;;;;;;;6.80;1.90;;;;;;;;;;5026946;28;20205;-70
2022/06/19 09:31:16;;;;;;;5.95;1.48;;;;;;;;;;5030649;28;20188;-73
2022/06/19 09:33:56;;;;;;;6.72;1.50;;;;;;;;;;5033045;28;20554;-70
2022/06/19 09:36:22;;;;;;;5.00;1.52;;;;;;;;;;5035930;28;20661;-71
2022/06/19 09:39:01;;;;;;;7.17;1.63;;;;;;;;;;5036971;28;20213;-72
2022/06/19 09:41:37;;;;;;;7.07;1.70;;;;;;;;;;5039777;28;20434;-71
2022/06/19 09:44:08;;;;;;;6.53;1.85;;;;;;;;;;5037015;28;20630;-72
2022/06/19 09:46:43;;;;;;;6.90;1.70;;;;;;;;;;5035973;28;20197;-72
2022/06/19 09:49:15;;;;;;;9.38;2.10;;;;;;;;;;5037701;28;20193;-71
2022/06/19 09:51:40;;;;;;;4.82;1.40;;;;;;;;;;5036163;28;20176;-72
2022/06/19 09:54:10;;;;;;;6.95;1.77;;;;;;;;;;5037844;28;20201;-71
2022/06/19 09:56:49;;;;;;;4.78;1.50;;;;;;;;;;5034970;28;20201;-71
2022/06/19 09:59:14;;;;;;;5.90;1.50;;;;;;;;;;5035257;28;20504;-73
2022/06/19 10:01:41;;;;;;;6.53;1.60;;;;;;;;;;5037745;28;20262;-71
2022/06/19 10:04:13;;;;;;;7.57;1.88;;;;;;;;;;5039168;28;20512;-71
2022/06/19 10:06:50;;;;;;;4.85;1.30;;;;;;;;;;5034472;28;20238;-72
2022/06/19 10:09:18;;;;;;;3.72;1.45;;;;;;;;;;5034916;28;20196;-71
2022/06/19 10:11:44;;;;;;;3.40;1.33;;;;;;;;;;5039886;28;20681;-72
2022/06/19 10:14:17;;;;;;;3.42;1.40;;;;;;;;;;5037426;28;20181;-72
2022/06/19 10:16:45;;;;;;;3.78;1.23;;;;;;;;;;5039674;28;20205;-72
2022/06/19 10:19:25;;;;;;;5.43;2.00;;;;;;;;;;5036169;28;20197;-71
2022/06/19 10:22:15;;;;;;;9.38;1.95;;;;;;;;;;5035188;28;20190;-72
2022/06/19 10:24:59;;;;;;;6.13;2.33;;;;;;;;;;5034247;28;20648;-71
2022/06/19 10:27:31;;;;;;;7.88;1.67;;;;;;;;;;5036641;28;20201;-70
2022/06/19 10:30:14;;;;;;;7.13;1.50;;;;;;;;;;5038598;28;20179;-71
2022/06/19 10:32:42;;;;;;;9.05;1.85;;;;;;;;;;5037058;28;20195;-70
2022/06/19 10:35:37;;;;;;;9.90;2.03;;;;;;;;;;5026902;28;20285;-71
2022/06/19 10:38:11;;;;;;;9.40;2.15;;;;;;;;;;5024116;28;20225;-72
2022/06/19 10:40:36;;;;;;;8.80;2.22;;;;;;;;;;5042606;28;20203;-71
2022/06/19 10:43:20;;;;;;;7.95;2.97;;;;;;;;;;5036190;28;20177;-71
2022/06/19 10:45:48;;;;;;;8.82;4.55;;;;;;;;;;5049153;28;20422;-72
2022/06/19 10:48:35;;;;;;;21.88;11.15;;;;;;;;;;5049683;28;20194;-72
2022/06/19 10:51:10;;;;;;;12.18;5.95;;;;;;;;;;5046863;28;20177;-72
2022/06/19 10:53:35;;;;;;;12.63;5.32;;;;;;;;;;5052609;28;20227;-72
2022/06/19 10:56:06;;;;;;;7.57;2.38;;;;;;;;;;5050842;28;20185;-71
2022/06/19 10:58:32;;;;;;;5.82;1.90;;;;;;;;;;5053479;28;20785;-73
2022/06/19 11:01:03;;;;;;;8.13;1.83;;;;;;;;;;5051749;28;20260;-73
2022/06/19 11:06:19;;;;;;;10.90;2.35;;;;;;;;;;5052678;28;20189;-71
2022/06/19 11:08:48;;;;;;;7.38;2.38;;;;;;;;;;5051141;28;20205;-72
2022/06/19 11:11:16;;;;;;;8.52;2.60;;;;;;;;;;5051428;28;20251;-72
2022/06/19 11:14:13;;;;;;;6.25;2.45;;;;;;;;;;5050753;28;20317;-72
2022/06/19 11:16:56;;;;;;;11.85;5.28;;;;;;;;;;4989593;28;20201;-72
2022/06/19 11:19:40;;;;;;;12.75;3.58;;;;;;;;;;5025893;28;20205;-71
2022/06/19 11:22:07;;;;;;;11.02;4.50;;;;;;;;;;5036294;28;20169;-70
2022/06/19 11:24:33;;;;;;;8.75;2.13;;;;;;;;;;5031430;28;20447;-71
2022/06/19 11:26:59;;;;;;;6.75;1.80;;;;;;;;;;5036501;28;20186;-71
2022/06/19 11:29:26;;;;;;;4.72;1.40;;;;;;;;;;5027183;28;20201;-70
2022/06/19 11:32:11;;;;;;;6.57;2.25;;;;;;;;;;5034311;28;20276;-71
2022/06/19 11:34:43;;;;;;;7.38;1.58;;;;;;;;;;5036275;28;22270;-72
2022/06/19 11:37:11;;;;;;;7.30;1.42;;;;;;;;;;5030464;28;20209;-71
2022/06/19 11:39:38;;;;;;;8.75;1.90;;;;;;;;;;5036433;28;20574;-71
2022/06/19 11:42:19;;;;;;;7.85;2.25;;;;;;;;;;5035396;28;20180;-71
2022/06/19 11:44:49;;;;;;;6.78;2.00;;;;;;;;;;5037799;28;20560;-70
2022/06/19 11:47:16;;;;;;;6.38;3.15;;;;;;;;;;5033065;28;20190;-71
2022/06/19 11:49:42;;;;;;;4.90;2.00;;;;;;;;;;5015717;28;20618;-70
2022/06/19 11:52:18;;;;;;;5.95;1.75;;;;;;;;;;5029587;28;20707;-71
2022/06/19 11:54:45;;;;;;;6.65;1.70;;;;;;;;;;5036796;28;20185;-71
2022/06/19 11:57:39;;;;;;;7.60;1.92;;;;;;;;;;5032347;28;20250;-71
2022/06/19 12:00:05;;;;;;;7.60;2.70;;;;;;;;;;5004739;28;20178;-72
2022/06/19 12:02:32;;;;;;;3.83;1.63;;;;;;;;;;5032522;28;20213;-71
2022/06/19 12:04:59;;;;;;;4.20;1.25;;;;;;;;;;5033165;28;20205;-71
2022/06/19 12:07:26;;;;;;;3.88;1.33;;;;;;;;;;5032116;28;20181;-72
2022/06/19 12:09:54;;;;;;;3.75;1.20;;;;;;;;;;5032790;28;20186;-71
2022/06/19 12:12:20;;;;;;;3.53;1.00;;;;;;;;;;5037066;28;20198;-72
2022/06/19 12:14:45;;;;;;;5.60;1.10;;;;;;;;;;5035463;28;20208;-71
2022/06/19 12:17:16;;;;;;;3.27;0.73;;;;;;;;;;5035800;28;20670;-71
2022/06/19 12:20:07;;;;;;;2.65;1.23;;;;;;;;;;5031410;28;20426;-72
2022/06/19 12:22:38;;;;;;;3.85;1.10;;;;;;;;;;5014545;28;20605;-71
2022/06/19 12:25:07;;;;;;;3.10;1.00;;;;;;;;;;5035014;28;20544;-71
2022/06/19 12:27:34;;;;;;;6.22;1.30;;;;;;;;;;5031995;28;20205;-72
2022/06/19 12:30:01;;;;;;;3.55;1.30;;;;;;;;;;5036234;28;20182;-72
2022/06/19 12:32:39;;;;;;;4.40;0.80;;;;;;;;;;5031692;28;20197;-71
2022/06/19 12:35:13;;;;;;;4.78;0.85;;;;;;;;;;5036273;28;20671;-72
2022/06/19 12:37:38;;;;;;;2.40;1.02;;;;;;;;;;5032964;28;20220;-71
2022/06/19 12:40:06;;;;;;;4.00;1.23;;;;;;;;;;5041068;28;20189;-72
2022/06/19 12:42:49;;;;;;;3.00;0.90;;;;;;;;;;5024349;28;20174;-72
2022/06/19 12:45:15;;;;;;;3.60;1.02;;;;;;;;;;5043762;28;20165;-72
2022/06/19 12:47:46;;;;;;;5.23;1.27;;;;;;;;;;5048580;28;20247;-72
2022/06/19 12:50:24;;;;;;;4.25;1.00;;;;;;;;;;5047823;28;20426;-72
2022/06/19 12:52:57;;;;;;;2.05;0.82;;;;;;;;;;5048432;28;20556;-70
2022/06/19 12:55:31;;;;;;;2.10;0.70;;;;;;;;;;5048187;28;20200;-71
2022/06/19 12:58:15;;;;;;;2.72;0.85;;;;;;;;;;5050147;28;20259;-72
2022/06/19 13:00:52;;;;;;;1.75;0.70;;;;;;;;;;5048222;28;20193;-71
2022/06/19 13:03:20;;;;;;;2.47;1.35;;;;;;;;;;5049695;28;20182;-71
2022/06/19 13:05:48;;;;;;;4.75;0.82;;;;;;;;;;5049537;28;20180;-71
2022/06/19 13:08:36;;;;;;;1.63;0.80;;;;;;;;;;5048185;28;20262;-70
2022/06/19 13:11:16;;;;;;;2.65;0.95;;;;;;;;;;5046131;28;20188;-72
2022/06/19 13:14:00;;;;;;;3.85;0.88;;;;;;;;;;5036179;28;20205;-71
2022/06/19 13:16:37;;;;;;;2.92;0.98;;;;;;;;;;5053217;28;20223;-71
2022/06/19 13:19:17;;;;;;;4.40;1.20;;;;;;;;;;5034591;28;20211;-70
2022/06/19 13:21:51;;;;;;;7.57;1.30;;;;;;;;;;5038851;28;20212;-71
2022/06/19 13:24:36;;;;;;;3.22;1.17;;;;;;;;;;5038579;28;20196;-71
2022/06/19 13:27:20;;;;;;;3.85;1.10;;;;;;;;;;5026260;28;20290;-70
2022/06/19 13:29:49;;;;;;;4.03;1.20;;;;;;;;;;5026574;28;20185;-70
2022/06/19 13:32:32;;;;;;;3.60;1.40;;;;;;;;;;5036854;28;20664;-70
2022/06/19 13:35:12;;;;;;;4.40;1.20;;;;;;;;;;5034402;28;22169;-71
2022/06/19 13:37:44;;;;;;;5.07;1.33;;;;;;;;;;5050271;28;20287;-71
2022/06/19 13:40:15;;;;;;;4.28;1.50;;;;;;;;;;5037936;28;20267;-71
2022/06/19 13:42:46;;;;;;;6.75;1.83;;;;;;;;;;5037936;28;20243;-71
2022/06/19 13:45:20;;;;;;;5.57;1.48;;;;;;;;;;5036484;28;20719;-71
2022/06/19 13:47:53;;;;;;;7.85;1.40;;;;;;;;;;5036890;28;20320;-71
2022/06/19 13:50:23;;;;;;;2.70;1.30;;;;;;;;;;5037629;28;20558;-70
2022/06/19 13:53:10;;;;;;;3.67;1.20;;;;;;;;;;5038137;28;20240;-71
2022/06/19 13:55:41;;;;;;;5.60;1.40;;;;;;;;;;5035894;28;20187;-72
2022/06/19 13:58:09;;;;;;;6.13;1.40;;;;;;;;;;5036443;28;21104;-72
2022/06/19 14:00:45;;;;;;;5.22;1.30;;;;;;;;;;5035834;28;20193;-71
2022/06/19 14:03:13;;;;;;;4.35;1.58;;;;;;;;;;5037535;28;20177;-72
2022/06/19 14:05:39;;;;;;;4.75;1.15;;;;;;;;;;5037490;28;20182;-71
2022/06/19 14:08:04;;;;;;;4.65;1.73;;;;;;;;;;5037933;28;20221;-73
2022/06/19 14:10:36;;;;;;;3.57;1.43;;;;;;;;;;5037046;28;20231;-71
2022/06/19 14:13:19;;;;;;;5.22;1.50;;;;;;;;;;5038540;28;20511;-72
2022/06/19 14:15:54;;;;;;;3.38;1.45;;;;;;;;;;5038407;28;20185;-72
2022/06/19 14:18:19;;;;;;;4.25;1.25;;;;;;;;;;5019274;28;20221;-72
2022/06/19 14:20:53;;;;;;;5.17;1.30;;;;;;;;;;5035569;28;20200;-72
2022/06/19 14:23:33;;;;;;;5.88;1.88;;;;;;;;;;5037113;28;20954;-71
2022/06/19 14:26:01;;;;;;;5.32;1.20;;;;;;;;;;5027149;28;20249;-71
2022/06/19 14:28:31;;;;;;;6.43;1.45;;;;;;;;;;5035243;28;20220;-72
2022/06/19 14:30:57;;;;;;;4.93;1.70;;;;;;;;;;5035989;28;20584;-72
2022/06/19 14:33:41;;;;;;;5.40;1.52;;;;;;;;;;5040764;28;20186;-71
2022/06/19 14:36:13;;;;;;;6.95;1.35;;;;;;;;;;5037430;28;20207;-71
2022/06/19 14:38:38;;;;;;;4.38;1.60;;;;;;;;;;5035213;28;20210;-73
2022/06/19 14:41:06;;;;;;;8.97;1.90;;;;;;;;;;5036200;28;20603;-72
2022/06/19 14:43:33;;;;;;;6.78;2.03;;;;;;;;;;5035538;28;20435;-72
2022/06/19 14:45:58;;;;;;;5.10;1.23;;;;;;;;;;5046849;28;20256;-73
2022/06/19 14:48:26;;;;;;;8.47;2.10;;;;;;;;;;5049937;28;20237;-73
2022/06/19 14:51:01;;;;;;;7.43;2.45;;;;;;;;;;5044404;28;20506;-73
2022/06/19 14:53:34;;;;;;;5.22;1.83;;;;;;;;;;5052684;28;20647;-73
2022/06/19 14:56:17;;;;;;;5.40;1.70;;;;;;;;;;5051702;28;20186;-73
2022/06/19 14:58:45;;;;;;;4.00;1.30;;;;;;;;;;5049168;28;20217;-73
2022/06/19 15:01:36;;;;;;;5.43;2.03;;;;;;;;;;5050265;28;20169;-73